Airport View

Enter AWOS ICAO identifier for current METAR.

ex. KFNL

KHIE 051311Z AUTO 23006KT 10SM BKN028 BKN034 BKN100 23/16 A2995 RMK AO2 T02280156

5 Aug 2020 13:23

Frequency: 118.525

Phone: 603-837-2769

Other Area AWOS: KMWN - KBML - K1V4 - KCDA

KHIE 051132Z 0512/0612 25005KT P6SM SCT035 FM051500 24010G17KT P6SM BKN035 FM052300 VRB03KT P6SM FEW250 FM060800 00000KT 1/2SM FG BKN002